sensor_id;sensor_type;location;lat;lon;timestamp;P1;durP1;ratioP1;P2;durP2;ratioP2
25341;SDS011;13298;48.792;9.154;2022-10-31T00:00:45;7.40;;;3.40;;
25341;SDS011;13298;48.792;9.154;2022-10-31T00:03:11;6.28;;;2.97;;
25341;SDS011;13298;48.792;9.154;2022-10-31T00:05:40;8.45;;;3.40;;
25341;SDS011;13298;48.792;9.154;2022-10-31T00:08:11;6.07;;;3.15;;
25341;SDS011;13298;48.792;9.154;2022-10-31T00:10:38;5.78;;;2.90;;
25341;SDS011;13298;48.792;9.154;2022-10-31T00:13:04;5.75;;;3.70;;
25341;SDS011;13298;48.792;9.154;2022-10-31T00:15:32;6.28;;;3.45;;
25341;SDS011;13298;48.792;9.154;2022-10-31T00:18:02;9.95;;;3.85;;
25341;SDS011;13298;48.792;9.154;2022-10-31T00:20:30;6.97;;;3.80;;
25341;SDS011;13298;48.792;9.154;2022-10-31T00:22:59;7.78;;;3.65;;
25341;SDS011;13298;48.792;9.154;2022-10-31T00:25:26;7.55;;;3.55;;
25341;SDS011;13298;48.792;9.154;2022-10-31T00:27:54;6.97;;;3.78;;
25341;SDS011;13298;48.792;9.154;2022-10-31T00:30:20;4.90;;;3.20;;
25341;SDS011;13298;48.792;9.154;2022-10-31T00:32:46;4.57;;;2.92;;
25341;SDS011;13298;48.792;9.154;2022-10-31T00:35:11;5.07;;;2.67;;
25341;SDS011;13298;48.792;9.154;2022-10-31T00:37:37;5.22;;;2.90;;
25341;SDS011;13298;48.792;9.154;2022-10-31T00:40:03;6.78;;;3.47;;
25341;SDS011;13298;48.792;9.154;2022-10-31T00:42:29;5.95;;;2.97;;
25341;SDS011;13298;48.792;9.154;2022-10-31T00:44:55;5.22;;;2.88;;
25341;SDS011;13298;48.792;9.154;2022-10-31T00:47:21;7.30;;;3.17;;
25341;SDS011;13298;48.792;9.154;2022-10-31T00:49:46;5.85;;;3.88;;
25341;SDS011;13298;48.792;9.154;2022-10-31T00:52:12;7.05;;;4.03;;
25341;SDS011;13298;48.792;9.154;2022-10-31T00:54:38;10.43;;;3.90;;
25341;SDS011;13298;48.792;9.154;2022-10-31T00:57:03;7.90;;;4.20;;
25341;SDS011;13298;48.792;9.154;2022-10-31T00:59:29;7.15;;;4.05;;
25341;SDS011;13298;48.792;9.154;2022-10-31T01:01:55;9.80;;;4.18;;
25341;SDS011;13298;48.792;9.154;2022-10-31T01:04:20;8.50;;;3.90;;
25341;SDS011;13298;48.792;9.154;2022-10-31T01:06:46;7.25;;;4.20;;
25341;SDS011;13298;48.792;9.154;2022-10-31T01:09:12;8.07;;;4.50;;
25341;SDS011;13298;48.792;9.154;2022-10-31T01:11:37;12.15;;;4.50;;
25341;SDS011;13298;48.792;9.154;2022-10-31T01:14:03;10.88;;;4.53;;
25341;SDS011;13298;48.792;9.154;2022-10-31T01:16:29;12.63;;;4.47;;
25341;SDS011;13298;48.792;9.154;2022-10-31T01:18:55;10.52;;;4.07;;
25341;SDS011;13298;48.792;9.154;2022-10-31T01:21:21;7.38;;;3.83;;
25341;SDS011;13298;48.792;9.154;2022-10-31T01:23:50;10.20;;;4.15;;
25341;SDS011;13298;48.792;9.154;2022-10-31T01:26:22;6.80;;;3.83;;
25341;SDS011;13298;48.792;9.154;2022-10-31T01:28:54;8.18;;;4.00;;
25341;SDS011;13298;48.792;9.154;2022-10-31T01:31:24;7.28;;;4.03;;
25341;SDS011;13298;48.792;9.154;2022-10-31T01:33:53;8.50;;;3.80;;
25341;SDS011;13298;48.792;9.154;2022-10-31T01:36:24;9.95;;;4.53;;
25341;SDS011;13298;48.792;9.154;2022-10-31T01:38:56;8.63;;;4.20;;
25341;SDS011;13298;48.792;9.154;2022-10-31T01:41:29;6.72;;;4.18;;
25341;SDS011;13298;48.792;9.154;2022-10-31T01:43:59;14.63;;;4.55;;
25341;SDS011;13298;48.792;9.154;2022-10-31T01:46:30;6.90;;;3.97;;
25341;SDS011;13298;48.792;9.154;2022-10-31T01:49:11;7.68;;;4.00;;
25341;SDS011;13298;48.792;9.154;2022-10-31T01:54:59;8.55;;;4.43;;
25341;SDS011;13298;48.792;9.154;2022-10-31T01:57:30;6.80;;;4.03;;
25341;SDS011;13298;48.792;9.154;2022-10-31T01:59:59;7.38;;;4.15;;
25341;SDS011;13298;48.792;9.154;2022-10-31T02:02:29;9.13;;;4.40;;
25341;SDS011;13298;48.792;9.154;2022-10-31T02:04:56;8.15;;;4.05;;
25341;SDS011;13298;48.792;9.154;2022-10-31T02:07:30;10.10;;;4.20;;
25341;SDS011;13298;48.792;9.154;2022-10-31T02:10:03;8.65;;;4.10;;
25341;SDS011;13298;48.792;9.154;2022-10-31T02:12:30;7.90;;;3.97;;
25341;SDS011;13298;48.792;9.154;2022-10-31T02:14:58;7.03;;;3.60;;
25341;SDS011;13298;48.792;9.154;2022-10-31T02:17:25;9.40;;;3.65;;
25341;SDS011;13298;48.792;9.154;2022-10-31T02:20:04;5.13;;;3.30;;
25341;SDS011;13298;48.792;9.154;2022-10-31T02:34:20;13.32;;;3.72;;
25341;SDS011;13298;48.792;9.154;2022-10-31T02:40:44;6.25;;;3.70;;
25341;SDS011;13298;48.792;9.154;2022-10-31T02:45:49;6.03;;;3.63;;
25341;SDS011;13298;48.792;9.154;2022-10-31T02:48:24;7.80;;;3.40;;
25341;SDS011;13298;48.792;9.154;2022-10-31T02:50:59;7.65;;;3.00;;
25341;SDS011;13298;48.792;9.154;2022-10-31T02:53:32;6.63;;;2.70;;
25341;SDS011;13298;48.792;9.154;2022-10-31T02:56:18;4.70;;;2.88;;
25341;SDS011;13298;48.792;9.154;2022-10-31T02:58:45;6.53;;;3.25;;
25341;SDS011;13298;48.792;9.154;2022-10-31T03:10:22;7.95;;;3.60;;
25341;SDS011;13298;48.792;9.154;2022-10-31T03:13:03;11.73;;;4.05;;
25341;SDS011;13298;48.792;9.154;2022-10-31T03:19:17;7.53;;;3.87;;
25341;SDS011;13298;48.792;9.154;2022-10-31T03:21:55;9.00;;;4.28;;
25341;SDS011;13298;48.792;9.154;2022-10-31T03:24:40;8.93;;;4.13;;
25341;SDS011;13298;48.792;9.154;2022-10-31T03:27:08;6.93;;;4.10;;
25341;SDS011;13298;48.792;9.154;2022-10-31T03:29:38;9.63;;;4.05;;
25341;SDS011;13298;48.792;9.154;2022-10-31T03:32:12;6.57;;;4.10;;
25341;SDS011;13298;48.792;9.154;2022-10-31T03:34:42;7.57;;;3.78;;
25341;SDS011;13298;48.792;9.154;2022-10-31T03:37:10;7.80;;;3.50;;
25341;SDS011;13298;48.792;9.154;2022-10-31T03:39:40;7.82;;;3.63;;
25341;SDS011;13298;48.792;9.154;2022-10-31T03:44:40;4.82;;;3.22;;
25341;SDS011;13298;48.792;9.154;2022-10-31T03:47:11;5.85;;;3.60;;
25341;SDS011;13298;48.792;9.154;2022-10-31T03:49:37;5.95;;;3.42;;
25341;SDS011;13298;48.792;9.154;2022-10-31T03:52:16;7.07;;;3.45;;
25341;SDS011;13298;48.792;9.154;2022-10-31T03:55:00;6.30;;;3.40;;
25341;SDS011;13298;48.792;9.154;2022-10-31T03:57:44;7.68;;;3.40;;
25341;SDS011;13298;48.792;9.154;2022-10-31T04:00:38;7.75;;;3.40;;
25341;SDS011;13298;48.792;9.154;2022-10-31T04:03:07;4.93;;;3.15;;
25341;SDS011;13298;48.792;9.154;2022-10-31T04:05:56;5.53;;;2.85;;
25341;SDS011;13298;48.792;9.154;2022-10-31T04:08:28;6.75;;;3.10;;
25341;SDS011;13298;48.792;9.154;2022-10-31T04:10:58;5.55;;;3.20;;
25341;SDS011;13298;48.792;9.154;2022-10-31T04:13:26;8.98;;;3.42;;
25341;SDS011;13298;48.792;9.154;2022-10-31T04:15:55;8.32;;;3.40;;
25341;SDS011;13298;48.792;9.154;2022-10-31T04:18:24;7.60;;;3.50;;
25341;SDS011;13298;48.792;9.154;2022-10-31T04:20:59;7.00;;;3.80;;
25341;SDS011;13298;48.792;9.154;2022-10-31T04:23:27;9.57;;;4.03;;
25341;SDS011;13298;48.792;9.154;2022-10-31T04:25:54;8.77;;;4.18;;
25341;SDS011;13298;48.792;9.154;2022-10-31T04:28:20;6.72;;;3.90;;
25341;SDS011;13298;48.792;9.154;2022-10-31T04:30:46;9.57;;;3.95;;
25341;SDS011;13298;48.792;9.154;2022-10-31T04:33:11;6.13;;;3.63;;
25341;SDS011;13298;48.792;9.154;2022-10-31T04:35:37;6.22;;;3.90;;
25341;SDS011;13298;48.792;9.154;2022-10-31T04:38:03;8.80;;;4.10;;
25341;SDS011;13298;48.792;9.154;2022-10-31T04:40:29;8.88;;;3.95;;
25341;SDS011;13298;48.792;9.154;2022-10-31T04:42:54;7.93;;;4.03;;
25341;SDS011;13298;48.792;9.154;2022-10-31T04:45:20;6.20;;;3.60;;
25341;SDS011;13298;48.792;9.154;2022-10-31T04:47:46;9.05;;;4.40;;
25341;SDS011;13298;48.792;9.154;2022-10-31T04:50:11;7.07;;;4.13;;
25341;SDS011;13298;48.792;9.154;2022-10-31T04:52:41;7.90;;;3.55;;
25341;SDS011;13298;48.792;9.154;2022-10-31T04:55:08;7.13;;;3.65;;
25341;SDS011;13298;48.792;9.154;2022-10-31T04:57:44;11.23;;;3.97;;
25341;SDS011;13298;48.792;9.154;2022-10-31T05:00:13;7.05;;;4.18;;
25341;SDS011;13298;48.792;9.154;2022-10-31T05:02:46;6.47;;;4.00;;
25341;SDS011;13298;48.792;9.154;2022-10-31T05:05:15;8.38;;;4.18;;
25341;SDS011;13298;48.792;9.154;2022-10-31T05:07:43;7.80;;;3.95;;
25341;SDS011;13298;48.792;9.154;2022-10-31T05:10:11;6.75;;;3.80;;
25341;SDS011;13298;48.792;9.154;2022-10-31T05:12:50;6.68;;;4.05;;
25341;SDS011;13298;48.792;9.154;2022-10-31T05:15:21;10.55;;;4.57;;
25341;SDS011;13298;48.792;9.154;2022-10-31T05:17:50;8.93;;;3.80;;
25341;SDS011;13298;48.792;9.154;2022-10-31T05:20:17;7.38;;;3.95;;
25341;SDS011;13298;48.792;9.154;2022-10-31T05:22:46;6.60;;;3.95;;
25341;SDS011;13298;48.792;9.154;2022-10-31T05:25:17;7.35;;;3.97;;
25341;SDS011;13298;48.792;9.154;2022-10-31T05:27:45;7.97;;;4.18;;
25341;SDS011;13298;48.792;9.154;2022-10-31T05:30:14;9.10;;;4.10;;
25341;SDS011;13298;48.792;9.154;2022-10-31T05:32:44;14.18;;;4.20;;
25341;SDS011;13298;48.792;9.154;2022-10-31T05:35:15;8.88;;;4.45;;
25341;SDS011;13298;48.792;9.154;2022-10-31T05:37:44;7.68;;;3.88;;
25341;SDS011;13298;48.792;9.154;2022-10-31T05:40:11;8.02;;;3.97;;
25341;SDS011;13298;48.792;9.154;2022-10-31T05:42:38;5.45;;;3.55;;
25341;SDS011;13298;48.792;9.154;2022-10-31T05:45:05;10.70;;;4.00;;
25341;SDS011;13298;48.792;9.154;2022-10-31T05:47:37;8.45;;;4.00;;
25341;SDS011;13298;48.792;9.154;2022-10-31T05:50:03;10.95;;;4.05;;
25341;SDS011;13298;48.792;9.154;2022-10-31T05:52:30;7.45;;;3.65;;
25341;SDS011;13298;48.792;9.154;2022-10-31T05:54:56;11.88;;;5.32;;
25341;SDS011;13298;48.792;9.154;2022-10-31T05:57:22;8.90;;;4.05;;
25341;SDS011;13298;48.792;9.154;2022-10-31T05:59:47;9.65;;;4.03;;
25341;SDS011;13298;48.792;9.154;2022-10-31T06:02:13;8.77;;;3.95;;
25341;SDS011;13298;48.792;9.154;2022-10-31T06:04:39;7.45;;;4.00;;
25341;SDS011;13298;48.792;9.154;2022-10-31T06:07:04;6.03;;;4.20;;
25341;SDS011;13298;48.792;9.154;2022-10-31T06:09:30;9.13;;;4.30;;
25341;SDS011;13298;48.792;9.154;2022-10-31T06:11:56;14.77;;;4.35;;
25341;SDS011;13298;48.792;9.154;2022-10-31T06:14:21;6.78;;;4.03;;
25341;SDS011;13298;48.792;9.154;2022-10-31T06:16:47;8.35;;;4.00;;
25341;SDS011;13298;48.792;9.154;2022-10-31T06:19:13;6.85;;;3.78;;
25341;SDS011;13298;48.792;9.154;2022-10-31T06:21:38;8.18;;;4.10;;
25341;SDS011;13298;48.792;9.154;2022-10-31T06:24:04;10.32;;;3.90;;
25341;SDS011;13298;48.792;9.154;2022-10-31T06:26:30;12.52;;;4.20;;
25341;SDS011;13298;48.792;9.154;2022-10-31T06:28:55;6.72;;;3.45;;
25341;SDS011;13298;48.792;9.154;2022-10-31T06:31:21;7.57;;;4.63;;
25341;SDS011;13298;48.792;9.154;2022-10-31T06:33:47;7.40;;;3.88;;
25341;SDS011;13298;48.792;9.154;2022-10-31T06:36:13;8.02;;;5.03;;
25341;SDS011;13298;48.792;9.154;2022-10-31T06:38:39;9.02;;;4.10;;
25341;SDS011;13298;48.792;9.154;2022-10-31T06:41:05;6.05;;;4.25;;
25341;SDS011;13298;48.792;9.154;2022-10-31T06:43:31;6.15;;;3.63;;
25341;SDS011;13298;48.792;9.154;2022-10-31T06:46:01;8.73;;;3.92;;
25341;SDS011;13298;48.792;9.154;2022-10-31T06:48:28;6.28;;;4.50;;
25341;SDS011;13298;48.792;9.154;2022-10-31T06:50:57;7.32;;;3.90;;
25341;SDS011;13298;48.792;9.154;2022-10-31T06:53:27;11.80;;;4.95;;
25341;SDS011;13298;48.792;9.154;2022-10-31T06:55:55;8.15;;;4.53;;
25341;SDS011;13298;48.792;9.154;2022-10-31T06:58:21;10.63;;;5.10;;
25341;SDS011;13298;48.792;9.154;2022-10-31T07:00:47;17.27;;;5.38;;
25341;SDS011;13298;48.792;9.154;2022-10-31T07:03:13;12.95;;;4.82;;
25341;SDS011;13298;48.792;9.154;2022-10-31T07:05:40;13.05;;;4.50;;
25341;SDS011;13298;48.792;9.154;2022-10-31T07:08:07;7.65;;;4.55;;
25341;SDS011;13298;48.792;9.154;2022-10-31T07:10:37;9.32;;;4.65;;
25341;SDS011;13298;48.792;9.154;2022-10-31T07:13:05;8.88;;;4.30;;
25341;SDS011;13298;48.792;9.154;2022-10-31T07:15:36;5.88;;;3.80;;
25341;SDS011;13298;48.792;9.154;2022-10-31T07:18:04;10.25;;;4.00;;
25341;SDS011;13298;48.792;9.154;2022-10-31T07:20:32;6.72;;;4.63;;
25341;SDS011;13298;48.792;9.154;2022-10-31T07:22:58;7.75;;;4.43;;
25341;SDS011;13298;48.792;9.154;2022-10-31T07:25:25;11.38;;;4.13;;
25341;SDS011;13298;48.792;9.154;2022-10-31T07:27:51;8.18;;;3.78;;
25341;SDS011;13298;48.792;9.154;2022-10-31T07:30:17;10.35;;;3.10;;
25341;SDS011;13298;48.792;9.154;2022-10-31T07:32:44;7.95;;;3.40;;
25341;SDS011;13298;48.792;9.154;2022-10-31T07:35:17;5.80;;;3.55;;
25341;SDS011;13298;48.792;9.154;2022-10-31T07:37:48;6.38;;;3.80;;
25341;SDS011;13298;48.792;9.154;2022-10-31T07:40:14;5.65;;;3.40;;
25341;SDS011;13298;48.792;9.154;2022-10-31T07:42:41;5.55;;;3.90;;
25341;SDS011;13298;48.792;9.154;2022-10-31T07:45:09;8.32;;;4.25;;
25341;SDS011;13298;48.792;9.154;2022-10-31T07:47:47;6.53;;;4.40;;
25341;SDS011;13298;48.792;9.154;2022-10-31T07:50:19;6.82;;;3.78;;
25341;SDS011;13298;48.792;9.154;2022-10-31T07:55:30;11.45;;;4.22;;
25341;SDS011;13298;48.792;9.154;2022-10-31T07:57:57;8.00;;;4.25;;
25341;SDS011;13298;48.792;9.154;2022-10-31T08:00:25;7.78;;;3.83;;
25341;SDS011;13298;48.792;9.154;2022-10-31T08:03:24;6.43;;;4.05;;
25341;SDS011;13298;48.792;9.154;2022-10-31T08:05:44;7.75;;;3.97;;
25341;SDS011;13298;48.792;9.154;2022-10-31T08:08:11;5.72;;;3.55;;
25341;SDS011;13298;48.792;9.154;2022-10-31T08:10:37;4.57;;;3.22;;
25341;SDS011;13298;48.792;9.154;2022-10-31T08:13:05;8.48;;;4.40;;
25341;SDS011;13298;48.792;9.154;2022-10-31T08:15:34;7.30;;;4.40;;
25341;SDS011;13298;48.792;9.154;2022-10-31T08:18:03;7.63;;;4.18;;
25341;SDS011;13298;48.792;9.154;2022-10-31T08:20:29;7.20;;;3.80;;
25341;SDS011;13298;48.792;9.154;2022-10-31T08:22:59;13.27;;;4.25;;
25341;SDS011;13298;48.792;9.154;2022-10-31T08:25:27;8.07;;;3.28;;
25341;SDS011;13298;48.792;9.154;2022-10-31T08:27:55;5.60;;;3.47;;
25341;SDS011;13298;48.792;9.154;2022-10-31T08:30:22;5.78;;;3.40;;
25341;SDS011;13298;48.792;9.154;2022-10-31T08:35:36;8.85;;;3.72;;
25341;SDS011;13298;48.792;9.154;2022-10-31T08:38:02;8.73;;;4.10;;
25341;SDS011;13298;48.792;9.154;2022-10-31T08:40:29;6.55;;;4.60;;
25341;SDS011;13298;48.792;9.154;2022-10-31T08:43:04;8.77;;;4.78;;
25341;SDS011;13298;48.792;9.154;2022-10-31T08:45:32;7.20;;;4.70;;
25341;SDS011;13298;48.792;9.154;2022-10-31T08:47:59;8.40;;;4.38;;
25341;SDS011;13298;48.792;9.154;2022-10-31T08:50:31;7.75;;;4.88;;
25341;SDS011;13298;48.792;9.154;2022-10-31T08:52:59;10.40;;;5.07;;
25341;SDS011;13298;48.792;9.154;2022-10-31T08:55:31;9.57;;;5.13;;
25341;SDS011;13298;48.792;9.154;2022-10-31T08:58:02;7.60;;;4.95;;
25341;SDS011;13298;48.792;9.154;2022-10-31T09:00:30;8.38;;;4.88;;
25341;SDS011;13298;48.792;9.154;2022-10-31T09:03:01;7.10;;;4.20;;
25341;SDS011;13298;48.792;9.154;2022-10-31T09:05:30;9.75;;;4.07;;
25341;SDS011;13298;48.792;9.154;2022-10-31T09:07:56;11.07;;;4.95;;
25341;SDS011;13298;48.792;9.154;2022-10-31T09:10:24;8.23;;;4.05;;
25341;SDS011;13298;48.792;9.154;2022-10-31T09:12:57;7.88;;;4.22;;
25341;SDS011;13298;48.792;9.154;2022-10-31T09:15:25;11.82;;;5.60;;
25341;SDS011;13298;48.792;9.154;2022-10-31T09:17:51;10.52;;;4.40;;
25341;SDS011;13298;48.792;9.154;2022-10-31T09:20:17;7.65;;;4.68;;
25341;SDS011;13298;48.792;9.154;2022-10-31T09:22:43;7.00;;;4.60;;
25341;SDS011;13298;48.792;9.154;2022-10-31T09:25:09;6.53;;;4.05;;
25341;SDS011;13298;48.792;9.154;2022-10-31T09:27:35;11.13;;;4.20;;
25341;SDS011;13298;48.792;9.154;2022-10-31T09:30:01;8.70;;;4.85;;
25341;SDS011;13298;48.792;9.154;2022-10-31T09:32:28;7.97;;;4.57;;
25341;SDS011;13298;48.792;9.154;2022-10-31T09:34:53;9.38;;;4.80;;
25341;SDS011;13298;48.792;9.154;2022-10-31T09:37:19;10.07;;;4.80;;
25341;SDS011;13298;48.792;9.154;2022-10-31T09:39:45;10.15;;;4.78;;
25341;SDS011;13298;48.792;9.154;2022-10-31T09:50:52;13.18;;;4.57;;
25341;SDS011;13298;48.792;9.154;2022-10-31T09:53:44;8.00;;;3.97;;
25341;SDS011;13298;48.792;9.154;2022-10-31T09:56:28;7.95;;;4.25;;
25341;SDS011;13298;48.792;9.154;2022-10-31T09:58:57;6.72;;;4.15;;
25341;SDS011;13298;48.792;9.154;2022-10-31T10:04:56;9.30;;;4.30;;
25341;SDS011;13298;48.792;9.154;2022-10-31T10:07:10;10.90;;;4.63;;
25341;SDS011;13298;48.792;9.154;2022-10-31T10:09:45;11.48;;;5.07;;
25341;SDS011;13298;48.792;9.154;2022-10-31T10:14:56;10.65;;;4.20;;
25341;SDS011;13298;48.792;9.154;2022-10-31T10:24:03;9.30;;;4.82;;
25341;SDS011;13298;48.792;9.154;2022-10-31T10:32:33;7.22;;;4.35;;
25341;SDS011;13298;48.792;9.154;2022-10-31T10:35:54;12.93;;;5.00;;
25341;SDS011;13298;48.792;9.154;2022-10-31T10:38:36;13.00;;;4.90;;
25341;SDS011;13298;48.792;9.154;2022-10-31T10:41:08;8.90;;;4.80;;
25341;SDS011;13298;48.792;9.154;2022-10-31T10:43:39;8.98;;;3.88;;
25341;SDS011;13298;48.792;9.154;2022-10-31T10:49:18;10.48;;;4.60;;
25341;SDS011;13298;48.792;9.154;2022-10-31T10:58:03;6.88;;;4.18;;
25341;SDS011;13298;48.792;9.154;2022-10-31T11:00:34;11.02;;;5.47;;
25341;SDS011;13298;48.792;9.154;2022-10-31T11:03:06;7.03;;;4.10;;
25341;SDS011;13298;48.792;9.154;2022-10-31T11:06:15;11.02;;;4.80;;
25341;SDS011;13298;48.792;9.154;2022-10-31T11:13:26;7.07;;;4.22;;
25341;SDS011;13298;48.792;9.154;2022-10-31T11:18:28;11.30;;;4.90;;
25341;SDS011;13298;48.792;9.154;2022-10-31T11:21:33;5.85;;;3.70;;
25341;SDS011;13298;48.792;9.154;2022-10-31T11:26:34;10.23;;;4.30;;
25341;SDS011;13298;48.792;9.154;2022-10-31T11:29:02;7.47;;;4.28;;
25341;SDS011;13298;48.792;9.154;2022-10-31T11:31:30;12.23;;;4.40;;
25341;SDS011;13298;48.792;9.154;2022-10-31T11:34:01;8.32;;;4.60;;
25341;SDS011;13298;48.792;9.154;2022-10-31T11:36:32;11.13;;;4.03;;
25341;SDS011;13298;48.792;9.154;2022-10-31T11:39:04;7.82;;;4.13;;
25341;SDS011;13298;48.792;9.154;2022-10-31T11:41:40;12.57;;;4.13;;
25341;SDS011;13298;48.792;9.154;2022-10-31T11:44:12;9.38;;;3.88;;
25341;SDS011;13298;48.792;9.154;2022-10-31T11:46:43;6.40;;;4.10;;
25341;SDS011;13298;48.792;9.154;2022-10-31T11:52:07;10.00;;;4.63;;
25341;SDS011;13298;48.792;9.154;2022-10-31T11:59:56;13.48;;;4.93;;
25341;SDS011;13298;48.792;9.154;2022-10-31T12:02:28;11.30;;;4.20;;
25341;SDS011;13298;48.792;9.154;2022-10-31T12:08:01;7.82;;;3.83;;
25341;SDS011;13298;48.792;9.154;2022-10-31T12:10:29;4.97;;;3.70;;
25341;SDS011;13298;48.792;9.154;2022-10-31T12:13:33;10.35;;;3.72;;
25341;SDS011;13298;48.792;9.154;2022-10-31T12:16:28;8.45;;;4.18;;
25341;SDS011;13298;48.792;9.154;2022-10-31T12:19:05;6.88;;;4.07;;
25341;SDS011;13298;48.792;9.154;2022-10-31T12:24:22;9.13;;;4.35;;
25341;SDS011;13298;48.792;9.154;2022-10-31T12:32:51;13.18;;;4.82;;
25341;SDS011;13298;48.792;9.154;2022-10-31T12:41:07;5.45;;;3.83;;
25341;SDS011;13298;48.792;9.154;2022-10-31T12:43:50;9.52;;;4.35;;
25341;SDS011;13298;48.792;9.154;2022-10-31T12:46:38;7.53;;;4.18;;
25341;SDS011;13298;48.792;9.154;2022-10-31T13:03:46;7.53;;;4.90;;
25341;SDS011;13298;48.792;9.154;2022-10-31T13:06:47;10.45;;;5.82;;
25341;SDS011;13298;48.792;9.154;2022-10-31T13:09:19;9.10;;;4.85;;
25341;SDS011;13298;48.792;9.154;2022-10-31T13:12:15;9.25;;;4.13;;
25341;SDS011;13298;48.792;9.154;2022-10-31T13:14:51;8.10;;;3.90;;
25341;SDS011;13298;48.792;9.154;2022-10-31T13:17:27;8.80;;;3.92;;
25341;SDS011;13298;48.792;9.154;2022-10-31T13:20:15;6.75;;;4.18;;
25341;SDS011;13298;48.792;9.154;2022-10-31T13:23:10;10.45;;;4.03;;
25341;SDS011;13298;48.792;9.154;2022-10-31T13:25:47;6.30;;;3.70;;
25341;SDS011;13298;48.792;9.154;2022-10-31T13:31:09;8.20;;;3.92;;
25341;SDS011;13298;48.792;9.154;2022-10-31T13:33:38;8.68;;;4.13;;
25341;SDS011;13298;48.792;9.154;2022-10-31T13:36:40;5.55;;;3.60;;
25341;SDS011;13298;48.792;9.154;2022-10-31T13:42:23;7.15;;;4.60;;
25341;SDS011;13298;48.792;9.154;2022-10-31T13:45:14;10.20;;;5.80;;
25341;SDS011;13298;48.792;9.154;2022-10-31T13:47:54;8.45;;;5.28;;
25341;SDS011;13298;48.792;9.154;2022-10-31T13:50:30;8.10;;;4.88;;
25341;SDS011;13298;48.792;9.154;2022-10-31T13:53:18;7.25;;;4.50;;
25341;SDS011;13298;48.792;9.154;2022-10-31T13:55:47;7.03;;;4.20;;
25341;SDS011;13298;48.792;9.154;2022-10-31T13:58:20;7.60;;;4.30;;
25341;SDS011;13298;48.792;9.154;2022-10-31T14:03:45;10.02;;;4.88;;
25341;SDS011;13298;48.792;9.154;2022-10-31T14:06:18;8.40;;;4.18;;
25341;SDS011;13298;48.792;9.154;2022-10-31T14:08:48;7.45;;;4.40;;
25341;SDS011;13298;48.792;9.154;2022-10-31T14:11:26;13.93;;;4.50;;
25341;SDS011;13298;48.792;9.154;2022-10-31T14:13:54;7.90;;;3.97;;
25341;SDS011;13298;48.792;9.154;2022-10-31T14:19:12;10.25;;;4.10;;
25341;SDS011;13298;48.792;9.154;2022-10-31T14:21:43;8.35;;;4.45;;
25341;SDS011;13298;48.792;9.154;2022-10-31T14:24:35;9.60;;;4.30;;
25341;SDS011;13298;48.792;9.154;2022-10-31T14:27:32;10.82;;;4.20;;
25341;SDS011;13298;48.792;9.154;2022-10-31T14:29:53;5.63;;;4.13;;
25341;SDS011;13298;48.792;9.154;2022-10-31T14:34:52;8.18;;;4.28;;
25341;SDS011;13298;48.792;9.154;2022-10-31T14:40:26;9.07;;;4.20;;
25341;SDS011;13298;48.792;9.154;2022-10-31T14:43:12;6.95;;;4.10;;
25341;SDS011;13298;48.792;9.154;2022-10-31T14:49:19;7.88;;;4.10;;
25341;SDS011;13298;48.792;9.154;2022-10-31T14:51:59;10.35;;;4.55;;
25341;SDS011;13298;48.792;9.154;2022-10-31T14:57:02;7.30;;;4.10;;
25341;SDS011;13298;48.792;9.154;2022-10-31T14:59:33;7.30;;;3.80;;
25341;SDS011;13298;48.792;9.154;2022-10-31T15:05:16;6.90;;;4.20;;
25341;SDS011;13298;48.792;9.154;2022-10-31T15:07:52;6.25;;;4.43;;
25341;SDS011;13298;48.792;9.154;2022-10-31T15:12:50;7.53;;;5.10;;
25341;SDS011;13298;48.792;9.154;2022-10-31T15:15:20;8.60;;;4.63;;
25341;SDS011;13298;48.792;9.154;2022-10-31T15:17:59;8.18;;;5.10;;
25341;SDS011;13298;48.792;9.154;2022-10-31T15:20:26;10.43;;;5.30;;
25341;SDS011;13298;48.792;9.154;2022-10-31T15:22:55;10.05;;;5.10;;
25341;SDS011;13298;48.792;9.154;2022-10-31T15:25:23;9.15;;;5.03;;
25341;SDS011;13298;48.792;9.154;2022-10-31T15:27:52;10.27;;;4.80;;
25341;SDS011;13298;48.792;9.154;2022-10-31T15:30:19;11.20;;;4.93;;
25341;SDS011;13298;48.792;9.154;2022-10-31T15:32:48;10.18;;;4.90;;
25341;SDS011;13298;48.792;9.154;2022-10-31T15:35:19;12.00;;;5.28;;
25341;SDS011;13298;48.792;9.154;2022-10-31T15:37:49;9.15;;;4.63;;
25341;SDS011;13298;48.792;9.154;2022-10-31T15:40:17;10.73;;;5.78;;
25341;SDS011;13298;48.792;9.154;2022-10-31T15:43:01;8.95;;;5.65;;
25341;SDS011;13298;48.792;9.154;2022-10-31T15:45:29;15.52;;;6.05;;
25341;SDS011;13298;48.792;9.154;2022-10-31T15:47:59;9.50;;;4.93;;
25341;SDS011;13298;48.792;9.154;2022-10-31T15:50:35;10.52;;;5.18;;
25341;SDS011;13298;48.792;9.154;2022-10-31T15:53:05;12.27;;;5.15;;
25341;SDS011;13298;48.792;9.154;2022-10-31T15:55:45;12.45;;;5.47;;
25341;SDS011;13298;48.792;9.154;2022-10-31T15:58:15;10.70;;;5.20;;
25341;SDS011;13298;48.792;9.154;2022-10-31T16:00:42;10.93;;;5.82;;
25341;SDS011;13298;48.792;9.154;2022-10-31T16:13:33;10.13;;;5.90;;
25341;SDS011;13298;48.792;9.154;2022-10-31T16:16:13;13.90;;;5.25;;
25341;SDS011;13298;48.792;9.154;2022-10-31T16:18:41;12.60;;;5.43;;
25341;SDS011;13298;48.792;9.154;2022-10-31T16:21:08;12.43;;;5.68;;
25341;SDS011;13298;48.792;9.154;2022-10-31T16:23:58;12.68;;;5.60;;
25341;SDS011;13298;48.792;9.154;2022-10-31T16:26:38;7.82;;;4.75;;
25341;SDS011;13298;48.792;9.154;2022-10-31T16:29:04;13.45;;;6.70;;
25341;SDS011;13298;48.792;9.154;2022-10-31T16:31:50;10.13;;;5.85;;
25341;SDS011;13298;48.792;9.154;2022-10-31T16:34:22;9.93;;;5.43;;
25341;SDS011;13298;48.792;9.154;2022-10-31T16:36:48;13.85;;;6.43;;
25341;SDS011;13298;48.792;9.154;2022-10-31T16:39:15;12.85;;;6.22;;
25341;SDS011;13298;48.792;9.154;2022-10-31T16:41:42;14.73;;;6.43;;
25341;SDS011;13298;48.792;9.154;2022-10-31T16:44:14;12.73;;;6.10;;
25341;SDS011;13298;48.792;9.154;2022-10-31T16:46:44;12.02;;;5.88;;
25341;SDS011;13298;48.792;9.154;2022-10-31T16:49:10;14.35;;;5.95;;
25341;SDS011;13298;48.792;9.154;2022-10-31T16:51:36;12.75;;;5.68;;
25341;SDS011;13298;48.792;9.154;2022-10-31T16:54:02;11.00;;;6.13;;
25341;SDS011;13298;48.792;9.154;2022-10-31T16:56:29;11.23;;;6.50;;
25341;SDS011;13298;48.792;9.154;2022-10-31T16:58:58;14.55;;;8.85;;
25341;SDS011;13298;48.792;9.154;2022-10-31T17:01:26;17.70;;;10.27;;
25341;SDS011;13298;48.792;9.154;2022-10-31T17:03:53;20.40;;;12.35;;
25341;SDS011;13298;48.792;9.154;2022-10-31T17:06:18;17.23;;;10.70;;
25341;SDS011;13298;48.792;9.154;2022-10-31T17:08:44;25.27;;;11.95;;
25341;SDS011;13298;48.792;9.154;2022-10-31T17:11:20;19.67;;;10.98;;
25341;SDS011;13298;48.792;9.154;2022-10-31T17:13:48;22.35;;;9.80;;
25341;SDS011;13298;48.792;9.154;2022-10-31T17:16:14;16.13;;;8.38;;
25341;SDS011;13298;48.792;9.154;2022-10-31T17:18:40;15.65;;;8.55;;
25341;SDS011;13298;48.792;9.154;2022-10-31T17:21:09;13.98;;;7.88;;
25341;SDS011;13298;48.792;9.154;2022-10-31T17:23:49;14.90;;;7.90;;
25341;SDS011;13298;48.792;9.154;2022-10-31T17:26:15;17.20;;;8.38;;
25341;SDS011;13298;48.792;9.154;2022-10-31T17:28:42;16.10;;;8.05;;
25341;SDS011;13298;48.792;9.154;2022-10-31T17:31:21;14.73;;;7.28;;
25341;SDS011;13298;48.792;9.154;2022-10-31T17:33:55;12.10;;;7.88;;
25341;SDS011;13298;48.792;9.154;2022-10-31T17:36:22;11.57;;;7.38;;
25341;SDS011;13298;48.792;9.154;2022-10-31T17:38:48;11.48;;;7.30;;
25341;SDS011;13298;48.792;9.154;2022-10-31T17:41:14;16.67;;;7.28;;
25341;SDS011;13298;48.792;9.154;2022-10-31T17:43:39;11.95;;;6.45;;
25341;SDS011;13298;48.792;9.154;2022-10-31T17:46:05;13.70;;;7.38;;
25341;SDS011;13298;48.792;9.154;2022-10-31T17:48:35;13.07;;;7.18;;
25341;SDS011;13298;48.792;9.154;2022-10-31T17:51:02;11.25;;;6.13;;
25341;SDS011;13298;48.792;9.154;2022-10-31T17:53:30;10.82;;;6.15;;